Main page
METAR-TAF:

METAR-TAF

Airports :

Salalah International Airport

Salalah, Oman

latitude: 17-02N, longitude: 054-05E, elevation: 20 m

METAR: missing

Time: 09:42 (05:42 UTC)

Forecast

The report was made 6 hours and 2 minutes ago, at 23:40 UTC
Forecast valid from 24 at 00 UTC to 25 at 06 UTC
Wind 3 kt from variable directions
Visibility 10 km or more
Scattered clouds at a height of 2500 ft
Becoming
from 24 at 04 UTC to 24 at 06 UTC
Wind 10 kt from the South
Becoming
from 24 at 15 UTC to 24 at 17 UTC
Wind 3 kt from variable directions
Broken clouds at a height of 2500 ft

TAF: OOSA 232340Z 2400/2506 VRB03KT 9999 SCT025 BECMG 2404/2406 18010KT BECMG 2415/2417 VRB03KT BKN025

Weather observations and forecasts of more than 4000 airports (METAR and TAF reports).

The available stations are represented by yellow and red dots on the map.

Hover mouse over dot to see the name of the station.

Then click to see weather observations and forecasts.

To change the map : click on the green buttons with a black cross to zoom in, on the green button with a dash to zoom out, or on the green arrows for adjacent maps.


METAR-TAF: